Cascade, Virginia
Current Conditions -  °F | °C
As of 9:15 PM on Saturday 25 Oct 2014 (Local Time) from KSIF Reporting Station
Clear Clear  
Wind Chill: 59°   Ceiling: Unl
Heat Index: 59°   Visibility: 10mi
Dew Point: 42°   Wind: 3mph
Humidity: 53%   Direction: 220°SW
Pressure: 29.9"   Gusts: NA
Location:  36.57°N, 79.67°W
Report Text: KSIF 260115Z AUTO 22003KT 10SM CLR 15/06 A2990 RMK AO2 T01500056
Loading
Personal Weather Stations






























Interactive Weather Map
Tropical Storm Tracking
New forecast layout! Learn more

10-Day Weather Forecast

Advertisements
Track Severe Weather on mobile